sensor_id;sensor_type;location;lat;lon;timestamp;pressure;altitude;pressure_sealevel;temperature;humidity
48800;BME280;34611;47.964;7.982;2023-02-02T00:02:57;97694.78;;;8.75;52.56
48800;BME280;34611;47.964;7.982;2023-02-02T00:09:57;97704.44;;;8.73;52.58
48800;BME280;34611;47.964;7.982;2023-02-02T00:16:58;97684.59;;;8.72;52.70
48800;BME280;34611;47.964;7.982;2023-02-02T00:23:58;97688.66;;;8.76;52.44
48800;BME280;34611;47.964;7.982;2023-02-02T00:31:01;97689.69;;;8.74;52.54
48800;BME280;34611;47.964;7.982;2023-02-02T00:38:01;97708.66;;;8.74;52.60
48800;BME280;34611;47.964;7.982;2023-02-02T00:45:02;97717.00;;;8.79;52.72
48800;BME280;34611;47.964;7.982;2023-02-02T00:52:15;97712.81;;;8.77;52.68
48800;BME280;34611;47.964;7.982;2023-02-02T00:59:15;97717.28;;;8.75;52.70
48800;BME280;34611;47.964;7.982;2023-02-02T01:06:16;97710.13;;;8.78;52.57
48800;BME280;34611;47.964;7.982;2023-02-02T01:13:16;97714.69;;;8.75;52.76
48800;BME280;34611;47.964;7.982;2023-02-02T01:20:18;97725.91;;;8.75;52.70
48800;BME280;34611;47.964;7.982;2023-02-02T01:27:18;97731.09;;;8.75;52.65
48800;BME280;34611;47.964;7.982;2023-02-02T01:34:18;97730.22;;;8.75;52.69
48800;BME280;34611;47.964;7.982;2023-02-02T01:41:20;97735.53;;;8.73;52.62
48800;BME280;34611;47.964;7.982;2023-02-02T01:48:22;97743.31;;;8.73;52.85
48800;BME280;34611;47.964;7.982;2023-02-02T01:55:24;97741.63;;;8.72;52.81
48800;BME280;34611;47.964;7.982;2023-02-02T02:02:26;97722.44;;;8.75;52.84
48800;BME280;34611;47.964;7.982;2023-02-02T02:09:27;97702.66;;;8.74;52.67
48800;BME280;34611;47.964;7.982;2023-02-02T02:30:53;97712.38;;;8.70;52.81
48800;BME280;34611;47.964;7.982;2023-02-02T02:38:13;97690.00;;;8.69;52.91
48800;BME280;34611;47.964;7.982;2023-02-02T02:45:16;97686.47;;;8.70;52.90
48800;BME280;34611;47.964;7.982;2023-02-02T02:52:17;97691.84;;;8.67;52.74
48800;BME280;34611;47.964;7.982;2023-02-02T03:06:28;97692.66;;;8.67;52.93
48800;BME280;34611;47.964;7.982;2023-02-02T03:13:33;97699.31;;;8.71;52.73
48800;BME280;34611;47.964;7.982;2023-02-02T03:20:33;97698.50;;;8.71;52.76
48800;BME280;34611;47.964;7.982;2023-02-02T03:27:33;97701.09;;;8.71;52.71
48800;BME280;34611;47.964;7.982;2023-02-02T03:34:34;97707.19;;;8.70;52.50
48800;BME280;34611;47.964;7.982;2023-02-02T03:41:34;97713.94;;;8.73;52.53
48800;BME280;34611;47.964;7.982;2023-02-02T03:48:35;97716.53;;;8.73;52.52
48800;BME280;34611;47.964;7.982;2023-02-02T03:55:36;97704.59;;;8.70;52.67
48800;BME280;34611;47.964;7.982;2023-02-02T04:02:38;97709.69;;;8.71;52.64
48800;BME280;34611;47.964;7.982;2023-02-02T04:09:38;97722.66;;;8.71;52.58
48800;BME280;34611;47.964;7.982;2023-02-02T04:16:38;97719.13;;;8.73;52.59
48800;BME280;34611;47.964;7.982;2023-02-02T04:23:38;97713.13;;;8.72;52.62
48800;BME280;34611;47.964;7.982;2023-02-02T04:30:39;97701.09;;;8.71;52.58
48800;BME280;34611;47.964;7.982;2023-02-02T04:37:39;97715.63;;;8.74;52.65
48800;BME280;34611;47.964;7.982;2023-02-02T04:44:39;97717.38;;;8.73;52.67
48800;BME280;34611;47.964;7.982;2023-02-02T04:51:40;97722.56;;;8.73;52.52
48800;BME280;34611;47.964;7.982;2023-02-02T04:58:40;97720.72;;;8.75;52.72
48800;BME280;34611;47.964;7.982;2023-02-02T05:05:41;97719.97;;;8.73;52.82
48800;BME280;34611;47.964;7.982;2023-02-02T05:12:41;97738.13;;;8.73;52.79
48800;BME280;34611;47.964;7.982;2023-02-02T05:19:41;97733.75;;;8.74;52.65
48800;BME280;34611;47.964;7.982;2023-02-02T05:26:42;97739.78;;;8.74;52.80
48800;BME280;34611;47.964;7.982;2023-02-02T05:33:42;97743.47;;;8.70;52.80
48800;BME280;34611;47.964;7.982;2023-02-02T05:40:42;97735.16;;;8.65;53.11
48800;BME280;34611;47.964;7.982;2023-02-02T05:47:43;97745.53;;;8.65;53.04
48800;BME280;34611;47.964;7.982;2023-02-02T05:54:43;97747.19;;;8.66;53.00
48800;BME280;34611;47.964;7.982;2023-02-02T06:01:44;97734.22;;;8.66;53.01
48800;BME280;34611;47.964;7.982;2023-02-02T06:08:44;97749.97;;;8.63;53.21
48800;BME280;34611;47.964;7.982;2023-02-02T06:15:44;97745.53;;;8.65;53.07
48800;BME280;34611;47.964;7.982;2023-02-02T06:22:45;97767.00;;;8.67;52.85
48800;BME280;34611;47.964;7.982;2023-02-02T06:29:45;97749.78;;;8.66;52.79
48800;BME280;34611;47.964;7.982;2023-02-02T06:36:45;97756.09;;;8.62;53.00
48800;BME280;34611;47.964;7.982;2023-02-02T06:43:46;97767.19;;;8.64;53.14
48800;BME280;34611;47.964;7.982;2023-02-02T06:50:47;97764.59;;;8.64;53.04
48800;BME280;34611;47.964;7.982;2023-02-02T06:57:47;97772.09;;;8.68;53.13
48800;BME280;34611;47.964;7.982;2023-02-02T07:04:47;97780.16;;;8.64;53.13
48800;BME280;34611;47.964;7.982;2023-02-02T07:11:48;97792.94;;;8.67;52.92
48800;BME280;34611;47.964;7.982;2023-02-02T07:18:48;97792.06;;;8.66;53.07
48800;BME280;34611;47.964;7.982;2023-02-02T07:25:48;97792.94;;;8.67;53.00
48800;BME280;34611;47.964;7.982;2023-02-02T07:32:49;97802.44;;;8.66;52.94
48800;BME280;34611;47.964;7.982;2023-02-02T07:39:49;97807.53;;;8.68;53.08
48800;BME280;34611;47.964;7.982;2023-02-02T07:46:49;97797.09;;;8.69;52.74
48800;BME280;34611;47.964;7.982;2023-02-02T07:53:50;97808.38;;;8.68;52.97
48800;BME280;34611;47.964;7.982;2023-02-02T08:00:51;97801.44;;;8.69;53.03
48800;BME280;34611;47.964;7.982;2023-02-02T08:07:51;97793.69;;;8.69;53.03
48800;BME280;34611;47.964;7.982;2023-02-02T08:14:52;97802.34;;;8.68;53.03
48800;BME280;34611;47.964;7.982;2023-02-02T08:21:53;97807.53;;;8.68;53.08
48800;BME280;34611;47.964;7.982;2023-02-02T08:28:54;97795.41;;;8.68;53.11
48800;BME280;34611;47.964;7.982;2023-02-02T08:35:55;97792.81;;;8.68;53.01
48800;BME280;34611;47.964;7.982;2023-02-02T08:42:55;97811.81;;;8.69;52.94
48800;BME280;34611;47.964;7.982;2023-02-02T08:49:55;97811.81;;;8.69;53.17
48800;BME280;34611;47.964;7.982;2023-02-02T08:56:55;97817.75;;;8.71;53.06
48800;BME280;34611;47.964;7.982;2023-02-02T09:03:56;97823.91;;;8.68;53.30
48800;BME280;34611;47.964;7.982;2023-02-02T09:11:01;97850.59;;;8.70;53.25
48800;BME280;34611;47.964;7.982;2023-02-02T09:18:01;97854.13;;;8.69;53.14
48800;BME280;34611;47.964;7.982;2023-02-02T09:25:01;97854.94;;;8.70;53.10
48800;BME280;34611;47.964;7.982;2023-02-02T09:32:02;97867.81;;;8.71;53.19
48800;BME280;34611;47.964;7.982;2023-02-02T09:39:02;97874.56;;;8.74;53.05
48800;BME280;34611;47.964;7.982;2023-02-02T09:46:13;97887.63;;;8.73;53.08
48800;BME280;34611;47.964;7.982;2023-02-02T09:53:17;97904.84;;;8.74;53.14
48800;BME280;34611;47.964;7.982;2023-02-02T10:00:26;97912.72;;;8.72;53.09
48800;BME280;34611;47.964;7.982;2023-02-02T10:07:31;97904.03;;;8.73;53.08
48800;BME280;34611;47.964;7.982;2023-02-02T10:21:49;97912.72;;;8.72;53.19
48800;BME280;34611;47.964;7.982;2023-02-02T10:36:20;97931.59;;;8.74;53.34
48800;BME280;34611;47.964;7.982;2023-02-02T10:50:50;97914.41;;;8.73;53.56
48800;BME280;34611;47.964;7.982;2023-02-02T10:58:14;97910.88;;;8.74;53.68
48800;BME280;34611;47.964;7.982;2023-02-02T11:05:23;97912.56;;;8.75;53.69
48800;BME280;34611;47.964;7.982;2023-02-02T11:12:43;97920.22;;;8.77;53.71
48800;BME280;34611;47.964;7.982;2023-02-02T11:19:45;97924.66;;;8.75;53.89
48800;BME280;34611;47.964;7.982;2023-02-02T11:26:50;97895.16;;;8.77;53.79
48800;BME280;34611;47.964;7.982;2023-02-02T11:33:52;97890.88;;;8.76;53.79
48800;BME280;34611;47.964;7.982;2023-02-02T11:40:54;97886.63;;;8.75;53.91
48800;BME280;34611;47.964;7.982;2023-02-02T11:47:59;97884.03;;;8.75;53.88
48800;BME280;34611;47.964;7.982;2023-02-02T11:55:00;97899.78;;;8.86;53.79
48800;BME280;34611;47.964;7.982;2023-02-02T12:02:22;97889.69;;;8.82;54.38
48800;BME280;34611;47.964;7.982;2023-02-02T12:09:23;97894.94;;;8.80;53.89
48800;BME280;34611;47.964;7.982;2023-02-02T12:16:34;97903.66;;;8.79;53.89
48800;BME280;34611;47.964;7.982;2023-02-02T12:38:05;97880.41;;;8.78;53.65
48800;BME280;34611;47.964;7.982;2023-02-02T13:06:35;97887.38;;;8.77;53.72
48800;BME280;34611;47.964;7.982;2023-02-02T13:13:40;97897.63;;;8.79;53.84
48800;BME280;34611;47.964;7.982;2023-02-02T13:20:42;97893.38;;;8.78;53.90
48800;BME280;34611;47.964;7.982;2023-02-02T13:27:44;97890.78;;;8.78;53.91
48800;BME280;34611;47.964;7.982;2023-02-02T13:34:47;97886.44;;;8.78;53.65
48800;BME280;34611;47.964;7.982;2023-02-02T13:41:48;97885.53;;;8.79;54.01
48800;BME280;34611;47.964;7.982;2023-02-02T13:48:52;97894.94;;;8.80;53.97
48800;BME280;34611;47.964;7.982;2023-02-02T14:10:29;97900.41;;;8.76;54.12
48800;BME280;34611;47.964;7.982;2023-02-02T14:31:42;97933.28;;;8.75;54.26
48800;BME280;34611;47.964;7.982;2023-02-02T14:39:03;97946.13;;;8.77;54.36
48800;BME280;34611;47.964;7.982;2023-02-02T15:00:32;97949.75;;;8.74;54.57
48800;BME280;34611;47.964;7.982;2023-02-02T15:07:35;97961.97;;;8.72;54.69
48800;BME280;34611;47.964;7.982;2023-02-02T15:21:45;97963.53;;;8.75;54.63
48800;BME280;34611;47.964;7.982;2023-02-02T15:35:47;97967.06;;;8.74;54.88
48800;BME280;34611;47.964;7.982;2023-02-02T15:42:49;97963.53;;;8.75;54.62
48800;BME280;34611;47.964;7.982;2023-02-02T15:49:53;97966.78;;;8.78;54.37
48800;BME280;34611;47.964;7.982;2023-02-02T15:56:55;97989.97;;;8.81;54.35
48800;BME280;34611;47.964;7.982;2023-02-02T16:11:16;97998.56;;;8.82;54.30
48800;BME280;34611;47.964;7.982;2023-02-02T16:18:16;98014.28;;;8.79;54.20
48800;BME280;34611;47.964;7.982;2023-02-02T16:25:18;98018.72;;;8.77;54.44
48800;BME280;34611;47.964;7.982;2023-02-02T16:39:27;98035.16;;;8.77;54.41
48800;BME280;34611;47.964;7.982;2023-02-02T16:46:46;98042.16;;;8.75;54.53
48800;BME280;34611;47.964;7.982;2023-02-02T16:53:51;98030.72;;;8.79;54.58
48800;BME280;34611;47.964;7.982;2023-02-02T17:00:56;98035.16;;;8.77;54.68
48800;BME280;34611;47.964;7.982;2023-02-02T17:07:58;98053.38;;;8.76;54.58
48800;BME280;34611;47.964;7.982;2023-02-02T17:15:00;98074.03;;;8.77;54.52
48800;BME280;34611;47.964;7.982;2023-02-02T17:22:03;98070.59;;;8.77;54.56
48800;BME280;34611;47.964;7.982;2023-02-02T17:29:04;98084.41;;;8.77;54.34
48800;BME280;34611;47.964;7.982;2023-02-02T17:36:05;98094.78;;;8.77;54.58
48800;BME280;34611;47.964;7.982;2023-02-02T17:43:05;98096.44;;;8.78;54.52
48800;BME280;34611;47.964;7.982;2023-02-02T17:50:06;98105.16;;;8.77;54.45
48800;BME280;34611;47.964;7.982;2023-02-02T17:57:06;98117.16;;;8.78;54.63
48800;BME280;34611;47.964;7.982;2023-02-02T18:04:06;98125.88;;;8.77;54.73
48800;BME280;34611;47.964;7.982;2023-02-02T18:11:09;98136.25;;;8.77;54.98
48800;BME280;34611;47.964;7.982;2023-02-02T18:18:10;98137.03;;;8.94;54.69
48800;BME280;34611;47.964;7.982;2023-02-02T18:25:14;98135.31;;;8.94;54.46
48800;BME280;34611;47.964;7.982;2023-02-02T18:32:15;98136.06;;;8.96;54.38
48800;BME280;34611;47.964;7.982;2023-02-02T18:39:16;98137.72;;;8.97;54.26
48800;BME280;34611;47.964;7.982;2023-02-02T18:46:16;98119.47;;;8.99;54.21
48800;BME280;34611;47.964;7.982;2023-02-02T18:53:17;98121.13;;;9.00;54.22
48800;BME280;34611;47.964;7.982;2023-02-02T19:00:17;98122.81;;;9.01;54.24
48800;BME280;34611;47.964;7.982;2023-02-02T19:07:18;98114.09;;;9.02;54.14
48800;BME280;34611;47.964;7.982;2023-02-02T19:14:37;98139.13;;;9.03;54.18
48800;BME280;34611;47.964;7.982;2023-02-02T19:21:37;98133.94;;;9.03;54.16
48800;BME280;34611;47.964;7.982;2023-02-02T19:28:40;98133.88;;;9.04;54.11
48800;BME280;34611;47.964;7.982;2023-02-02T19:35:44;98142.47;;;9.05;54.01
48800;BME280;34611;47.964;7.982;2023-02-02T19:42:46;98153.69;;;9.05;54.17
48800;BME280;34611;47.964;7.982;2023-02-02T19:49:46;98158.66;;;9.24;54.42
48800;BME280;34611;47.964;7.982;2023-02-02T19:56:46;98154.66;;;9.19;54.32
48800;BME280;34611;47.964;7.982;2023-02-02T20:03:47;98174.56;;;9.18;54.11
48800;BME280;34611;47.964;7.982;2023-02-02T20:10:47;98182.34;;;9.18;54.11
48800;BME280;34611;47.964;7.982;2023-02-02T20:17:48;98172.91;;;9.17;54.06
48800;BME280;34611;47.964;7.982;2023-02-02T20:24:48;98177.91;;;9.20;54.10
48800;BME280;34611;47.964;7.982;2023-02-02T20:31:50;98157.25;;;9.19;53.98
48800;BME280;34611;47.964;7.982;2023-02-02T20:38:50;98151.97;;;9.20;53.98
48800;BME280;34611;47.964;7.982;2023-02-02T20:45:51;98157.16;;;9.20;53.91
48800;BME280;34611;47.964;7.982;2023-02-02T20:52:51;98148.47;;;9.21;53.87
48800;BME280;34611;47.964;7.982;2023-02-02T20:59:53;98158.84;;;9.21;54.05
48800;BME280;34611;47.964;7.982;2023-02-02T21:06:56;98149.28;;;9.22;54.08
48800;BME280;34611;47.964;7.982;2023-02-02T21:13:58;98151.06;;;9.21;54.03
48800;BME280;34611;47.964;7.982;2023-02-02T21:20:59;98157.91;;;9.22;54.05
48800;BME280;34611;47.964;7.982;2023-02-02T21:27:59;98155.31;;;9.22;54.08
48800;BME280;34611;47.964;7.982;2023-02-02T21:34:59;98157.91;;;9.22;53.80
48800;BME280;34611;47.964;7.982;2023-02-02T21:49:13;98153.44;;;9.24;54.20
48800;BME280;34611;47.964;7.982;2023-02-02T21:56:37;98140.47;;;9.24;53.88
48800;BME280;34611;47.964;7.982;2023-02-02T22:03:38;98143.00;;;9.26;54.07
48800;BME280;34611;47.964;7.982;2023-02-02T22:10:38;98152.53;;;9.25;53.84
48800;BME280;34611;47.964;7.982;2023-02-02T22:17:41;98155.97;;;9.26;54.13
48800;BME280;34611;47.964;7.982;2023-02-02T22:24:44;98162.81;;;9.27;54.17
48800;BME280;34611;47.964;7.982;2023-02-02T22:31:45;98173.19;;;9.27;53.92
48800;BME280;34611;47.964;7.982;2023-02-02T22:38:45;98179.25;;;9.27;54.18
48800;BME280;34611;47.964;7.982;2023-02-02T22:45:45;98196.47;;;9.28;54.11
48800;BME280;34611;47.964;7.982;2023-02-02T22:52:46;98196.47;;;9.28;54.11
48800;BME280;34611;47.964;7.982;2023-02-02T22:59:46;98195.63;;;9.28;53.99
48800;BME280;34611;47.964;7.982;2023-02-02T23:06:46;98200.75;;;9.29;54.13
48800;BME280;34611;47.964;7.982;2023-02-02T23:13:47;98180.91;;;9.28;54.06
48800;BME280;34611;47.964;7.982;2023-02-02T23:20:47;98197.22;;;9.30;54.07
48800;BME280;34611;47.964;7.982;2023-02-02T23:27:47;98194.69;;;9.29;54.09
48800;BME280;34611;47.964;7.982;2023-02-02T23:34:48;98201.56;;;9.30;54.19
48800;BME280;34611;47.964;7.982;2023-02-02T23:41:48;98189.44;;;9.30;54.17
48800;BME280;34611;47.964;7.982;2023-02-02T23:48:48;98198.97;;;9.30;54.05
48800;BME280;34611;47.964;7.982;2023-02-02T23:55:49;98186.84;;;9.30;54.07
